Time;durP1;ratioP1;P1;durP2;ratioP2;P2;SDS_P1;SDS_P2;PMS_P1;PMS_P2;Temp;Humidity;BMP_temperature;BMP_pressure;BME280_temperature;BME280_humidity;BME280_pressure;Samples;Min_cycle;Max_cycle;Signal;HPM_P1;HPM_P2
2022/12/20 00:02:07;;;;;;;22.85;8.00;;;;;;;;;;5053733;28;20040;-75
2022/12/20 00:04:33;;;;;;;17.25;8.05;;;-0.40;99.90;;;;;;5051648;28;20025;-75
2022/12/20 00:06:58;;;;;;;14.32;7.75;;;-0.60;99.90;;;;;;5053466;28;20041;-75
2022/12/20 00:09:24;;;;;;;14.18;8.73;;;0.80;99.90;;;;;;5068589;28;20025;-75
2022/12/20 00:11:50;;;;;;;25.38;9.73;;;-0.30;99.90;;;;;;5053405;28;20021;-75
2022/12/20 00:14:16;;;;;;;19.65;9.10;;;-0.30;99.90;;;;;;5068898;28;20021;-75
2022/12/20 00:16:42;;;;;;;15.52;9.50;;;;;;;;;;5051767;28;20045;-75
2022/12/20 00:19:09;;;;;;;17.38;8.93;;;-0.20;99.90;;;;;;5053605;28;20032;-76
2022/12/20 00:21:35;;;;;;;14.50;7.25;;;-0.10;99.90;;;;;;5052872;28;20029;-75
2022/12/20 00:24:01;;;;;;;16.20;6.85;;;-0.30;99.90;;;;;;5053215;28;20039;-75
2022/12/20 00:26:29;;;;;;;12.73;6.15;;;0.90;99.90;;;;;;5053323;28;20544;-75
2022/12/20 00:28:56;;;;;;;11.90;7.35;;;2.00;99.90;;;;;;5052295;28;20059;-75
2022/12/20 00:31:23;;;;;;;14.30;6.47;;;2.00;99.90;;;;;;5051410;28;20520;-75
2022/12/20 00:33:51;;;;;;;12.95;6.05;;;-0.40;99.90;;;;;;5052975;28;20439;-75
2022/12/20 00:36:18;;;;;;;14.05;5.15;;;0.20;99.90;;;;;;5067685;28;20478;-75
2022/12/20 00:38:45;;;;;;;12.57;5.57;;;-0.40;99.90;;;;;;5052635;28;20632;-75
2022/12/20 00:41:15;;;;;;;14.05;5.40;;;-0.40;99.90;;;;;;5052489;28;20072;-75
2022/12/20 00:43:41;;;;;;;;;;;-0.40;99.90;;;;;;5053389;28;20029;-76
2022/12/20 00:46:08;;;;;;;13.13;6.75;;;-0.30;99.90;;;;;;5053486;28;19923;-75
2022/12/20 00:48:34;;;;;;;12.73;6.60;;;-0.30;99.90;;;;;;5053089;28;20028;-76
2022/12/20 00:51:04;;;;;;;12.68;6.80;;;2.40;99.90;;;;;;5054060;28;20025;-75
2022/12/20 00:53:30;;;;;;;17.15;9.00;;;1.90;99.90;;;;;;5053923;28;20021;-75
2022/12/20 00:55:57;;;;;;;10.85;6.78;;;0.00;99.90;;;;;;5054590;28;20021;-75
2022/12/20 00:58:22;;;;;;;9.93;5.78;;;1.30;99.90;;;;;;5053375;28;20115;-75
2022/12/20 01:00:48;;;;;;;10.30;6.45;;;0.80;99.90;;;;;;5055663;28;20067;-75
2022/12/20 01:03:14;;;;;;;9.88;5.82;;;0.10;99.90;;;;;;5052277;28;20637;-75
2022/12/20 01:05:56;;;;;;;15.15;7.22;;;0.00;99.90;;;;;;5051929;28;20111;-76
2022/12/20 01:08:23;;;;;;;11.85;6.55;;;-0.10;99.90;;;;;;5050317;28;20442;-76
2022/12/20 01:11:22;;;;;;;9.80;5.53;;;-0.10;99.90;;;;;;5051597;28;20024;-76
2022/12/20 01:13:51;;;;;;;8.07;4.57;;;0.00;99.90;;;;;;5007660;28;20120;-75
2022/12/20 01:16:24;;;;;;;10.37;5.87;;;0.00;99.90;;;;;;5050477;28;20028;-75
2022/12/20 01:18:50;;;;;;;10.25;5.97;;;0.00;99.90;;;;;;5053642;28;20358;-76
2022/12/20 01:21:18;;;;;;;12.10;6.68;;;0.20;99.90;;;;;;5054942;28;20514;-76
2022/12/20 01:23:44;;;;;;;11.02;4.80;;;;;;;;;;5053405;28;20036;-75
2022/12/20 01:26:13;;;;;;;11.95;7.15;;;0.10;99.90;;;;;;5054366;28;20033;-75
2022/12/20 01:28:41;;;;;;;11.75;6.45;;;0.10;99.90;;;;;;5052241;28;20504;-76
2022/12/20 01:31:08;;;;;;;11.93;5.80;;;0.00;99.90;;;;;;5051703;28;20265;-75
2022/12/20 01:33:35;;;;;;;12.18;7.20;;;0.00;99.90;;;;;;5051454;28;20025;-76
2022/12/20 01:36:07;;;;;;;15.55;6.53;;;0.00;99.90;;;;;;5049679;28;20028;-75
2022/12/20 01:38:34;;;;;;;12.10;6.85;;;0.00;99.90;;;;;;5066992;28;20072;-75
2022/12/20 01:41:01;;;;;;;10.27;5.70;;;-0.10;99.90;;;;;;5067155;28;20029;-75
2022/12/20 01:43:47;;;;;;;14.57;8.00;;;-0.10;99.90;;;;;;5050980;28;20077;-76
2022/12/20 01:46:13;;;;;;;14.07;8.07;;;0.00;99.90;;;;;;5050980;28;20230;-75
2022/12/20 01:48:40;;;;;;;16.23;8.25;;;0.40;99.90;;;;;;5049559;28;20230;-75
2022/12/20 01:51:06;;;;;;;20.95;7.70;;;2.10;99.90;;;;;;5066338;28;20029;-76
2022/12/20 01:53:32;;;;;;;11.98;8.10;;;1.90;99.90;;;;;;5050971;28;20398;-76
2022/12/20 01:56:04;;;;;;;14.85;7.53;;;2.20;99.90;;;;;;5050668;28;20074;-75
2022/12/20 01:58:31;;;;;;;19.35;8.38;;;-0.10;99.90;;;;;;5050399;28;20025;-75
2022/12/20 02:00:57;;;;;;;20.98;9.38;;;0.80;99.90;;;;;;5050755;28;20024;-75
2022/12/20 02:03:22;;;;;;;12.77;7.55;;;0.30;99.90;;;;;;5050735;28;20423;-76
2022/12/20 02:05:48;;;;;;;19.13;9.18;;;0.00;99.90;;;;;;5050374;28;20072;-76
2022/12/20 02:08:17;;;;;;;13.45;6.85;;;0.70;99.90;;;;;;5049014;28;20017;-76
2022/12/20 02:10:43;;;;;;;11.60;6.82;;;-0.10;99.90;;;;;;5049149;28;20099;-75
2022/12/20 02:13:18;;;;;;;9.43;5.72;;;0.10;99.90;;;;;;5050266;28;20481;-76
2022/12/20 02:15:55;;;;;;;15.38;7.05;;;0.00;99.90;;;;;;5050798;28;20211;-75
2022/12/20 02:18:49;;;;;;;13.43;8.18;;;0.10;99.90;;;;;;5050717;28;20025;-75
2022/12/20 02:21:24;;;;;;;11.80;7.03;;;1.90;99.90;;;;;;5036347;28;20032;-75
2022/12/20 02:24:25;;;;;;;22.27;8.77;;;0.00;99.90;;;;;;5050265;28;20029;-76
2022/12/20 02:27:03;;;;;;;16.40;10.00;;;0.20;99.90;;;;;;5019005;28;20041;-76
2022/12/20 02:30:00;;;;;;;17.75;8.20;;;0.20;99.90;;;;;;5049725;28;20096;-76
2022/12/20 02:32:41;;;;;;;22.35;8.40;;;0.20;99.90;;;;;;5050145;28;20021;-75
2022/12/20 02:35:09;;;;;;;14.45;9.07;;;0.30;99.90;;;;;;5050076;28;20032;-76
2022/12/20 02:37:35;;;;;;;16.90;8.73;;;;;;;;;;5048400;28;20049;-75
2022/12/20 02:40:02;;;;;;;17.00;7.43;;;-0.40;99.90;;;;;;5048503;28;20029;-75
2022/12/20 02:42:31;;;;;;;19.70;10.95;;;1.90;99.90;;;;;;5050821;28;20029;-76
2022/12/20 02:45:14;;;;;;;11.20;6.38;;;1.90;99.90;;;;;;5050771;28;20071;-75
2022/12/20 02:48:01;;;;;;;16.45;7.32;;;0.30;99.90;;;;;;5051703;28;20245;-75
2022/12/20 02:50:34;;;;;;;14.13;7.53;;;0.30;99.90;;;;;;5067723;28;20460;-75
2022/12/20 02:53:01;;;;;;;9.70;5.95;;;0.20;99.90;;;;;;5050508;28;20013;-75
2022/12/20 02:55:45;;;;;;;10.65;6.70;;;0.30;99.90;;;;;;5048506;28;20029;-75
2022/12/20 02:58:37;;;;;;;12.95;7.13;;;0.20;99.90;;;;;;5049540;28;20397;-75
2022/12/20 03:01:27;;;;;;;14.98;7.20;;;1.70;99.90;;;;;;5048320;28;20018;-75
2022/12/20 03:03:53;;;;;;;18.23;9.43;;;0.40;99.90;;;;;;5048401;28;20021;-75
2022/12/20 03:06:20;;;;;;;16.83;7.78;;;0.50;99.90;;;;;;5049852;28;20583;-75
2022/12/20 03:08:46;;;;;;;22.08;10.52;;;1.60;99.90;;;;;;5051172;28;20474;-75
2022/12/20 03:11:12;;;;;;;20.45;8.95;;;;;;;;;;5051219;28;20071;-75
2022/12/20 03:13:38;;;;;;;22.08;8.95;;;0.50;99.90;;;;;;5050651;28;20071;-75
2022/12/20 03:16:05;;;;;;;19.20;8.63;;;3.10;99.90;;;;;;5052098;28;20466;-76
2022/12/20 03:18:30;;;;;;;19.80;9.52;;;0.30;99.90;;;;;;5051004;28;20032;-75
2022/12/20 03:20:56;;;;;;;17.35;9.02;;;;;;;;;;5049765;28;20029;-75
2022/12/20 03:23:22;;;;;;;15.93;9.80;;;0.30;99.90;;;;;;5050140;28;20079;-75
2022/12/20 03:25:48;;;;;;;10.63;6.65;;;;;;;;;;5065337;28;20505;-75
2022/12/20 03:28:14;;;;;;;14.68;7.07;;;0.50;99.90;;;;;;5048310;28;20024;-75
2022/12/20 03:30:40;;;;;;;18.92;8.75;;;0.20;99.90;;;;;;5049721;28;20359;-75
2022/12/20 03:33:05;;;;;;;15.35;7.70;;;0.90;99.90;;;;;;5049680;28;20041;-75
2022/12/20 03:35:31;;;;;;;13.73;8.98;;;0.00;99.90;;;;;;5050290;28;20532;-75
2022/12/20 03:37:57;;;;;;;22.05;11.02;;;0.10;99.90;;;;;;5049587;28;20048;-75
2022/12/20 03:40:23;;;;;;;14.13;8.13;;;0.20;99.90;;;;;;5049449;28;20387;-75
2022/12/20 03:42:48;;;;;;;17.83;8.52;;;0.20;99.90;;;;;;5049606;28;20022;-75
2022/12/20 03:45:14;;;;;;;15.30;7.07;;;0.20;99.90;;;;;;5049830;28;20036;-75
2022/12/20 03:47:40;;;;;;;17.38;6.95;;;0.20;99.90;;;;;;5051156;28;20029;-75
2022/12/20 03:50:06;;;;;;;16.55;8.07;;;1.90;99.90;;;;;;5051019;28;20025;-75
2022/12/20 03:52:32;;;;;;;18.63;9.70;;;0.20;99.90;;;;;;5051295;28;20060;-75
2022/12/20 03:54:58;;;;;;;14.90;7.70;;;-0.10;99.90;;;;;;5051707;28;20086;-74
2022/12/20 03:57:24;;;;;;;13.20;7.82;;;;;;;;;;5053360;28;20167;-75
2022/12/20 03:59:50;;;;;;;15.43;7.97;;;;;;;;;;5054194;28;20035;-75
2022/12/20 04:02:16;;;;;;;9.98;6.57;;;;;;;;;;5053435;28;20017;-75
2022/12/20 04:04:42;;;;;;;14.80;7.55;;;0.20;99.90;;;;;;5052669;28;20100;-75
2022/12/20 04:07:08;;;;;;;15.25;7.47;;;0.30;99.90;;;;;;5052723;28;20158;-75
2022/12/20 04:09:33;;;;;;;14.60;6.47;;;1.00;99.90;;;;;;5052833;28;20029;-75
2022/12/20 04:12:00;;;;;;;15.77;6.38;;;0.10;99.90;;;;;;5053479;28;20036;-75
2022/12/20 04:14:25;;;;;;;20.70;9.10;;;0.10;99.90;;;;;;5053470;28;20196;-75
2022/12/20 04:16:51;;;;;;;12.60;7.13;;;0.00;99.90;;;;;;5053465;28;20116;-74
2022/12/20 04:19:17;;;;;;;13.48;6.93;;;1.70;99.90;;;;;;5052883;28;20045;-75
2022/12/20 04:21:43;;;;;;;14.00;7.78;;;;;;;;;;5067955;28;20024;-75
2022/12/20 04:24:09;;;;;;;15.10;7.15;;;0.20;99.90;;;;;;5052290;28;20171;-75
2022/12/20 04:26:35;;;;;;;16.92;7.72;;;0.20;99.90;;;;;;5053883;28;20128;-75
2022/12/20 04:29:00;;;;;;;13.98;6.50;;;0.00;99.90;;;;;;5055650;28;20063;-75
2022/12/20 04:31:27;;;;;;;11.77;6.20;;;0.70;99.90;;;;;;5055701;28;20053;-75
2022/12/20 04:33:53;;;;;;;10.55;5.93;;;2.00;99.90;;;;;;5055531;28;20074;-75
2022/12/20 04:36:19;;;;;;;14.80;7.28;;;-0.10;99.90;;;;;;5050845;28;20074;-75
2022/12/20 04:38:45;;;;;;;12.30;6.88;;;-0.10;99.90;;;;;;5050901;28;20045;-75
2022/12/20 04:41:20;;;;;;;10.85;5.28;;;-0.30;99.90;;;;;;5052267;28;20474;-75
2022/12/20 04:43:50;;;;;;;14.52;5.97;;;2.20;99.90;;;;;;5052611;28;20539;-75
2022/12/20 04:46:17;;;;;;;13.23;6.32;;;2.40;99.90;;;;;;5052723;28;20041;-75
2022/12/20 04:48:43;;;;;;;14.65;5.53;;;0.00;99.90;;;;;;5052302;28;20469;-75
2022/12/20 04:51:08;;;;;;;12.45;5.18;;;1.30;99.90;;;;;;5052881;28;20036;-75
2022/12/20 04:53:46;;;;;;;12.35;6.28;;;1.50;99.90;;;;;;5053375;28;20017;-75
2022/12/20 04:56:14;;;;;;;10.18;5.72;;;0.00;99.90;;;;;;5055341;28;20083;-75
2022/12/20 04:58:40;;;;;;;15.00;7.05;;;;;;;;;;5055061;28;20363;-75
2022/12/20 05:01:06;;;;;;;12.55;5.80;;;;;;;;;;5052712;28;20385;-75
2022/12/20 05:03:32;;;;;;;17.80;6.35;;;-0.30;99.90;;;;;;5052462;28;20101;-75
2022/12/20 05:05:57;;;;;;;13.65;6.88;;;-0.30;99.90;;;;;;5050473;28;20489;-76
2022/12/20 05:08:23;;;;;;;12.32;6.63;;;2.00;99.90;;;;;;5052954;28;20410;-75
2022/12/20 05:10:49;;;;;;;11.65;6.70;;;-0.30;99.90;;;;;;5052235;28;20251;-75
2022/12/20 05:13:15;;;;;;;14.73;6.10;;;-0.30;99.90;;;;;;5052094;28;20017;-75
2022/12/20 05:15:41;;;;;;;22.77;6.95;;;2.00;99.90;;;;;;5052557;28;20035;-75
2022/12/20 05:18:07;;;;;;;14.32;5.82;;;1.20;99.90;;;;;;5052140;28;20025;-75
2022/12/20 05:20:33;;;;;;;18.23;7.47;;;-0.20;99.90;;;;;;5051617;28;20405;-75
2022/12/20 05:28:27;;;;;;;11.50;6.22;;;-0.20;99.90;;;;;;5050969;28;20160;-75
2022/12/20 05:30:52;;;;;;;8.68;5.70;;;-0.10;99.90;;;;;;5051264;28;20104;-75
2022/12/20 05:33:18;;;;;;;11.35;6.25;;;-0.30;99.90;;;;;;5049787;28;20028;-75
2022/12/20 05:35:44;;;;;;;10.80;5.72;;;;;;;;;;5051117;28;20496;-74
2022/12/20 05:38:10;;;;;;;10.57;6.07;;;-0.30;99.90;;;;;;5050810;28;20041;-76
2022/12/20 05:40:36;;;;;;;10.32;5.78;;;;;;;;;;5050872;28;20432;-76
2022/12/20 05:43:02;;;;;;;12.80;5.07;;;;;;;;;;5050743;28;20100;-75
2022/12/20 05:45:27;;;;;;;19.00;9.38;;;-0.10;99.90;;;;;;5049993;28;20409;-76
2022/12/20 05:47:53;;;;;;;12.93;6.00;;;0.00;99.90;;;;;;5050775;28;20029;-75
2022/12/20 05:50:19;;;;;;;10.50;5.15;;;0.00;99.90;;;;;;5050832;28;20382;-76
2022/12/20 05:52:44;;;;;;;10.88;5.60;;;0.10;99.90;;;;;;5049944;28;20032;-75
2022/12/20 05:55:10;;;;;;;7.95;5.03;;;0.00;99.90;;;;;;5050889;28;20021;-76
2022/12/20 05:57:36;;;;;;;13.23;7.28;;;0.00;99.90;;;;;;5050608;28;20032;-75
2022/12/20 06:00:03;;;;;;;8.68;5.53;;;0.10;99.90;;;;;;5065727;28;20143;-76
2022/12/20 06:02:28;;;;;;;12.32;5.95;;;0.30;99.90;;;;;;5050562;28;20021;-76
2022/12/20 06:04:54;;;;;;;11.32;5.57;;;2.40;99.90;;;;;;5049177;28;20021;-76
2022/12/20 06:07:20;;;;;;;14.45;6.93;;;1.70;99.90;;;;;;5050772;28;20393;-76
2022/12/20 06:09:46;;;;;;;9.82;5.10;;;0.10;99.90;;;;;;5050581;28;20032;-76
2022/12/20 06:12:12;;;;;;;9.43;5.55;;;0.50;99.90;;;;;;5050681;28;20029;-76
2022/12/20 06:14:38;;;;;;;8.65;4.57;;;2.50;99.90;;;;;;5050086;28;20020;-76
2022/12/20 06:17:04;;;;;;;8.15;4.95;;;2.20;99.90;;;;;;5050997;28;20021;-76
2022/12/20 06:19:30;;;;;;;11.05;4.78;;;;;;;;;;5054011;28;20108;-76
2022/12/20 06:21:55;;;;;;;7.70;5.38;;;0.90;99.90;;;;;;5052335;28;20044;-76
2022/12/20 06:24:24;;;;;;;12.98;5.28;;;;;;;;;;5051539;28;20449;-75
2022/12/20 06:26:50;;;;;;;10.07;6.60;;;-0.10;99.90;;;;;;5050512;28;20180;-75
2022/12/20 06:29:16;;;;;;;9.40;5.75;;;0.80;99.90;;;;;;5051840;28;20025;-75
2022/12/20 06:31:43;;;;;;;10.02;5.63;;;;;;;;;;5050387;28;20036;-75
2022/12/20 06:34:09;;;;;;;11.90;5.30;;;0.30;99.90;;;;;;5048731;28;20401;-75
2022/12/20 06:36:35;;;;;;;7.85;5.78;;;0.40;99.90;;;;;;5065566;28;20032;-75
2022/12/20 06:39:01;;;;;;;7.97;5.20;;;2.20;99.90;;;;;;5050177;28;20055;-75
2022/12/20 06:41:26;;;;;;;17.77;6.63;;;0.60;99.90;;;;;;5048787;28;20025;-75
2022/12/20 06:43:52;;;;;;;12.93;5.15;;;2.00;99.90;;;;;;5049858;28;20095;-75
2022/12/20 06:46:18;;;;;;;7.13;5.47;;;0.60;99.90;;;;;;5065415;28;20033;-75
2022/12/20 06:48:43;;;;;;;10.00;5.28;;;0.60;99.90;;;;;;5050505;28;20021;-75
2022/12/20 06:51:09;;;;;;;10.13;5.72;;;2.50;99.90;;;;;;5051497;28;20025;-75
2022/12/20 06:53:35;;;;;;;7.95;4.63;;;;;;;;;;5051668;28;20016;-75
2022/12/20 06:56:01;;;;;;;8.43;4.97;;;0.80;99.90;;;;;;5052109;28;20436;-75
2022/12/20 06:58:27;;;;;;;8.55;5.38;;;;;;;;;;5067280;28;20078;-75
2022/12/20 07:00:53;;;;;;;7.13;4.85;;;0.80;99.90;;;;;;5050339;28;20046;-75
2022/12/20 07:03:19;;;;;;;7.25;4.05;;;1.80;99.90;;;;;;5066334;28;20032;-75
2022/12/20 07:05:51;;;;;;;12.40;6.28;;;1.90;99.90;;;;;;5064948;28;20037;-75
2022/12/20 07:08:17;;;;;;;8.15;5.20;;;;;;;;;;5050258;28;20502;-75
2022/12/20 07:10:42;;;;;;;8.43;4.63;;;0.80;99.90;;;;;;5050298;28;20071;-75
2022/12/20 07:13:08;;;;;;;12.05;5.22;;;0.70;99.90;;;;;;5049790;28;20068;-75
2022/12/20 07:15:34;;;;;;;7.43;4.00;;;0.80;99.90;;;;;;5049699;28;20029;-75
2022/12/20 07:18:00;;;;;;;10.85;5.80;;;1.70;99.90;;;;;;5049577;28;20021;-75
2022/12/20 07:20:26;;;;;;;8.40;5.07;;;0.90;99.90;;;;;;5049478;28;20040;-75
2022/12/20 07:22:51;;;;;;;18.95;10.68;;;0.80;99.90;;;;;;5049484;28;20021;-75
2022/12/20 07:25:18;;;;;;;9.05;5.13;;;2.20;99.90;;;;;;5049468;28;20037;-75
2022/12/20 07:27:48;;;;;;;7.45;4.93;;;2.30;99.90;;;;;;5050130;28;20021;-75
2022/12/20 07:30:15;;;;;;;10.55;4.53;;;0.70;99.90;;;;;;5050350;28;20024;-75
2022/12/20 07:32:41;;;;;;;10.70;5.13;;;0.80;99.90;;;;;;5065094;28;20060;-75
2022/12/20 07:35:07;;;;;;;11.20;5.32;;;2.70;99.90;;;;;;5052061;28;20064;-76
2022/12/20 07:37:32;;;;;;;8.57;5.00;;;0.90;99.90;;;;;;5053641;28;20581;-75
2022/12/20 07:39:58;;;;;;;11.18;5.97;;;1.00;99.90;;;;;;5068819;28;20119;-75
2022/12/20 07:42:24;;;;;;;8.18;4.45;;;1.00;99.90;;;;;;5068435;28;20051;-76
2022/12/20 07:44:50;;;;;;;11.77;4.90;;;;;;;;;;5052835;28;20028;-75
2022/12/20 07:47:15;;;;;;;7.88;4.22;;;1.20;99.90;;;;;;5051883;28;20116;-76
2022/12/20 07:49:41;;;;;;;11.50;6.50;;;2.40;99.90;;;;;;5053007;28;20559;-75
2022/12/20 07:52:10;;;;;;;8.75;5.47;;;2.30;99.90;;;;;;5052839;28;20529;-76
2022/12/20 07:54:59;;;;;;;6.87;5.43;;;2.40;99.90;;;;;;5068401;28;20121;-76
2022/12/20 07:57:30;;;;;;;6.97;4.35;;;2.30;99.90;;;;;;5052943;28;20021;-75
2022/12/20 07:59:59;;;;;;;12.38;7.95;;;2.20;99.90;;;;;;5052591;28;20112;-75
2022/12/20 08:02:34;;;;;;;8.90;5.50;;;2.50;99.90;;;;;;5052957;28;20029;-75
2022/12/20 08:05:00;;;;;;;7.97;4.55;;;2.80;99.90;;;;;;5052885;28;20079;-75
2022/12/20 08:07:28;;;;;;;8.90;4.40;;;1.60;99.90;;;;;;5051382;28;20021;-75
2022/12/20 08:09:54;;;;;;;9.18;5.45;;;;;;;;;;5052645;28;20083;-76
2022/12/20 08:12:20;;;;;;;11.20;5.38;;;2.00;99.90;;;;;;5051313;28;20067;-75
2022/12/20 08:14:46;;;;;;;4.43;3.22;;;2.80;99.90;;;;;;5052523;28;20021;-76
2022/12/20 08:17:12;;;;;;;8.75;5.05;;;1.20;99.90;;;;;;5054831;28;20482;-76
2022/12/20 08:19:38;;;;;;;7.30;4.18;;;1.50;99.90;;;;;;5054882;28;20017;-76
2022/12/20 08:22:05;;;;;;;9.52;5.20;;;;;;;;;;5053738;28;20028;-77
2022/12/20 08:24:33;;;;;;;7.68;4.20;;;1.50;99.90;;;;;;5051131;28;20482;-76
2022/12/20 08:26:59;;;;;;;8.18;4.75;;;;;;;;;;5053437;28;20041;-79
2022/12/20 08:29:25;;;;;;;6.45;5.22;;;1.80;99.90;;;;;;5052661;28;20313;-75
2022/12/20 08:31:51;;;;;;;9.55;5.45;;;1.70;99.90;;;;;;5061594;28;20051;-76
2022/12/20 08:34:17;;;;;;;4.18;3.38;;;2.20;99.90;;;;;;5047913;28;20381;-75
2022/12/20 08:36:43;;;;;;;7.82;4.43;;;;;;;;;;5054869;28;20024;-75
2022/12/20 08:39:10;;;;;;;7.15;3.88;;;1.70;99.90;;;;;;5050577;28;20402;-76
2022/12/20 08:41:36;;;;;;;4.65;3.42;;;1.90;99.90;;;;;;5049939;28;20033;-74
2022/12/20 08:44:02;;;;;;;6.10;4.07;;;;;;;;;;5050038;28;20024;-76
2022/12/20 08:46:28;;;;;;;5.22;3.25;;;;;;;;;;5051004;28;20493;-75
2022/12/20 08:48:54;;;;;;;5.72;3.95;;;2.10;99.90;;;;;;5047878;28;20021;-76
2022/12/20 08:51:19;;;;;;;6.05;4.63;;;1.90;99.90;;;;;;5048924;28;20109;-74
2022/12/20 08:53:45;;;;;;;7.95;4.45;;;1.90;99.90;;;;;;5047977;28;20025;-75
2022/12/20 08:56:18;;;;;;;4.43;2.97;;;2.10;99.90;;;;;;5049134;28;20384;-75
2022/12/20 08:58:44;;;;;;;6.45;3.60;;;2.80;99.90;;;;;;5051618;28;20044;-74
2022/12/20 09:01:14;;;;;;;5.88;3.67;;;2.20;99.90;;;;;;5050438;28;20029;-74
2022/12/20 09:03:40;;;;;;;5.07;3.33;;;2.10;99.90;;;;;;5030254;28;20022;-75
2022/12/20 09:06:09;;;;;;;4.80;4.20;;;2.30;99.90;;;;;;5030610;28;20120;-75
2022/12/20 09:08:36;;;;;;;6.10;3.30;;;2.40;99.90;;;;;;5032088;28;20387;-75
2022/12/20 09:11:08;;;;;;;7.68;4.20;;;2.70;99.90;;;;;;5031776;28;20029;-75
2022/12/20 09:13:34;;;;;;;6.00;3.92;;;;;;;;;;5031685;28;20028;-75
2022/12/20 09:16:05;;;;;;;5.32;2.95;;;2.70;99.90;;;;;;5029202;28;20029;-75
2022/12/20 09:18:31;;;;;;;8.73;3.75;;;2.80;99.90;;;;;;5029549;28;20037;-75
2022/12/20 09:21:02;;;;;;;5.03;3.92;;;3.40;99.90;;;;;;5028652;28;20029;-76
2022/12/20 09:23:28;;;;;;;5.07;3.60;;;3.90;99.90;;;;;;5028436;28;20033;-74
2022/12/20 09:25:54;;;;;;;5.38;4.18;;;;;;;;;;5028922;28;20033;-74
2022/12/20 09:28:21;;;;;;;3.53;2.47;;;2.80;99.90;;;;;;5039015;28;20027;-75
2022/12/20 09:30:47;;;;;;;4.15;3.20;;;2.90;99.90;;;;;;5048916;28;20021;-75
2022/12/20 09:33:12;;;;;;;3.83;3.42;;;3.00;99.90;;;;;;5046698;28;20070;-74
2022/12/20 09:35:47;;;;;;;6.07;3.22;;;3.20;99.90;;;;;;5064308;28;20025;-74
2022/12/20 09:38:13;;;;;;;6.75;3.08;;;3.30;99.90;;;;;;5046276;28;20057;-75
2022/12/20 09:40:45;;;;;;;3.35;2.55;;;3.30;99.90;;;;;;5047694;28;20367;-75
2022/12/20 09:43:13;;;;;;;4.10;2.53;;;4.80;99.90;;;;;;5046089;28;20500;-75
2022/12/20 09:45:39;;;;;;;3.42;2.80;;;2.80;99.90;;;;;;5048709;28;20390;-75
2022/12/20 09:48:08;;;;;;;4.43;2.70;;;2.70;99.90;;;;;;5049156;28;20021;-75
2022/12/20 09:50:52;;;;;;;3.40;2.67;;;3.00;99.90;;;;;;5049934;28;20025;-75
2022/12/20 09:53:34;;;;;;;9.00;3.58;;;3.30;99.90;;;;;;5049581;28;20036;-75
2022/12/20 09:56:11;;;;;;;4.55;3.58;;;5.40;99.90;;;;;;5047507;28;20024;-76
2022/12/20 09:58:58;;;;;;;4.25;2.85;;;4.20;99.90;;;;;;5046511;28;20059;-76
2022/12/20 10:01:26;;;;;;;4.00;2.92;;;3.70;99.90;;;;;;5047213;28;20112;-74
2022/12/20 10:03:53;;;;;;;5.50;2.83;;;3.70;99.90;;;;;;5048196;28;20374;-75
2022/12/20 10:06:19;;;;;;;5.05;2.72;;;;;;;;;;5050137;28;20032;-74
2022/12/20 10:08:57;;;;;;;6.15;2.97;;;3.90;99.90;;;;;;5049571;28;20029;-74
2022/12/20 10:11:23;;;;;;;4.45;2.88;;;;;;;;;;5046557;28;20029;-77
2022/12/20 10:13:56;;;;;;;3.95;3.03;;;;;;;;;;5045153;28;20478;-76
2022/12/20 10:16:44;;;;;;;4.47;3.60;;;4.10;99.90;;;;;;5047267;28;20226;-76
2022/12/20 10:19:25;;;;;;;4.47;3.30;;;4.40;99.90;;;;;;5047335;28;20025;-76
2022/12/20 10:22:19;;;;;;;4.25;2.67;;;4.10;99.90;;;;;;5045541;28;20056;-78
2022/12/20 10:24:55;;;;;;;4.40;2.88;;;4.50;99.90;;;;;;5046132;28;20021;-76
2022/12/20 10:27:21;;;;;;;4.72;3.15;;;;;;;;;;5046453;28;20041;-76
2022/12/20 10:29:48;;;;;;;5.55;3.20;;;4.70;99.90;;;;;;5027121;28;20120;-76
2022/12/20 10:32:21;;;;;;;3.83;2.97;;;4.60;99.90;;;;;;5025433;28;20040;-76
2022/12/20 10:35:11;;;;;;;5.03;3.28;;;4.70;99.90;;;;;;5044026;28;20059;-76
2022/12/20 10:37:37;;;;;;;5.55;3.22;;;4.40;99.90;;;;;;5041702;28;20049;-78
2022/12/20 10:40:04;;;;;;;3.22;2.60;;;4.50;99.90;;;;;;5045843;28;20121;-73
2022/12/20 10:42:41;;;;;;;4.60;3.97;;;4.70;99.90;;;;;;5046638;28;20025;-74
2022/12/20 10:45:28;;;;;;;6.70;3.17;;;4.80;99.90;;;;;;5046114;28;20051;-76
2022/12/20 10:47:59;;;;;;;3.90;3.38;;;4.90;99.90;;;;;;5061318;28;20238;-76
2022/12/20 10:50:25;;;;;;;5.97;3.63;;;;;;;;;;5042862;28;20474;-76
2022/12/20 10:53:09;;;;;;;7.03;3.22;;;5.00;99.90;;;;;;5046463;28;20271;-77
2022/12/20 10:55:36;;;;;;;3.00;2.70;;;5.10;99.90;;;;;;5048063;28;20040;-75
2022/12/20 10:58:04;;;;;;;5.65;2.70;;;4.90;99.90;;;;;;5043085;28;20032;-76
2022/12/20 11:00:31;;;;;;;3.70;2.90;;;4.10;99.90;;;;;;5062358;28;20029;-76
2022/12/20 11:03:20;;;;;;;5.30;4.25;;;5.20;99.90;;;;;;5047978;28;20715;-75
2022/12/20 11:05:58;;;;;;;5.05;3.03;;;5.00;99.90;;;;;;5040621;28;20041;-75
2022/12/20 11:08:26;;;;;;;3.60;2.88;;;5.20;99.90;;;;;;5028574;28;20030;-78
2022/12/20 11:11:12;;;;;;;3.85;2.30;;;5.30;99.90;;;;;;5032289;28;20044;-76
2022/12/20 11:13:39;;;;;;;5.68;2.50;;;5.30;99.90;;;;;;5030850;28;20091;-77
2022/12/20 11:16:20;;;;;;;4.43;3.22;;;5.60;99.90;;;;;;5036904;28;20094;-76
2022/12/20 11:18:55;;;;;;;4.03;2.63;;;5.50;99.90;;;;;;5036671;28;20032;-76
2022/12/20 11:21:39;;;;;;;3.92;2.53;;;5.90;99.90;;;;;;5049657;28;20029;-75
2022/12/20 11:24:08;;;;;;;5.25;3.50;;;;;;;;;;5055633;28;20028;-76
2022/12/20 11:27:07;;;;;;;6.80;2.97;;;6.90;99.90;;;;;;5049338;28;20132;-76
2022/12/20 11:29:41;;;;;;;4.85;2.88;;;7.50;99.90;;;;;;5048579;28;20104;-77
2022/12/20 11:32:07;;;;;;;4.60;3.40;;;;;;;;;;5047519;28;20071;-77
2022/12/20 11:34:49;;;;;;;5.78;3.08;;;;;;;;;;5053778;28;20432;-75
2022/12/20 11:37:23;;;;;;;5.57;3.15;;;7.80;99.90;;;;;;5035701;28;20427;-75
2022/12/20 11:40:27;;;;;;;5.47;2.97;;;8.20;99.90;;;;;;5049046;28;20419;-75
2022/12/20 11:42:55;;;;;;;5.18;3.28;;;8.10;99.90;;;;;;5064361;28;20032;-75
2022/12/20 11:45:24;;;;;;;4.28;2.88;;;;;;;;;;5047765;28;20032;-76
2022/12/20 11:48:11;;;;;;;6.83;3.33;;;8.20;99.90;;;;;;5049843;28;20032;-76
2022/12/20 11:51:15;;;;;;;4.97;3.22;;;6.40;99.90;;;;;;5050395;28;20760;-77
2022/12/20 11:53:51;;;;;;;7.28;3.75;;;6.40;99.90;;;;;;5028699;28;20488;-80
2022/12/20 11:56:25;;;;;;;6.43;3.75;;;6.20;99.90;;;;;;5028802;28;20485;-78
2022/12/20 11:59:12;;;;;;;3.90;2.33;;;6.00;99.90;;;;;;5049345;28;20037;-76
2022/12/20 12:01:55;;;;;;;3.45;3.15;;;5.90;99.90;;;;;;5066041;28;20047;-75
2022/12/20 12:04:32;;;;;;;6.78;2.97;;;5.80;99.90;;;;;;5050005;28;20190;-75
2022/12/20 12:07:10;;;;;;;5.35;3.13;;;5.80;99.90;;;;;;5051367;28;20478;-75
2022/12/20 12:09:56;;;;;;;3.45;2.67;;;5.80;99.90;;;;;;5048917;28;20078;-75
2022/12/20 12:12:38;;;;;;;4.32;2.95;;;5.70;99.90;;;;;;5065145;28;20466;-75
2022/12/20 12:15:26;;;;;;;3.22;2.55;;;5.90;99.90;;;;;;5048486;28;20484;-75
2022/12/20 12:18:29;;;;;;;7.20;3.65;;;5.90;99.90;;;;;;5047881;28;20029;-75
2022/12/20 12:21:17;;;;;;;4.07;2.88;;;;;;;;;;5036661;28;20051;-75
2022/12/20 12:23:43;;;;;;;4.10;3.03;;;;;;;;;;5063914;28;20040;-75
2022/12/20 12:26:18;;;;;;;4.18;2.70;;;;;;;;;;5048973;28;20545;-75
2022/12/20 12:28:47;;;;;;;6.40;2.85;;;6.50;99.90;;;;;;5057182;28;20362;-77
2022/12/20 12:31:17;;;;;;;4.97;3.08;;;6.60;99.90;;;;;;5058019;28;20040;-78
2022/12/20 12:33:48;;;;;;;3.58;2.80;;;;;;;;;;5058870;28;20320;-78
2022/12/20 12:36:41;;;;;;;5.60;2.95;;;7.30;99.90;;;;;;5059792;28;20036;-76
2022/12/20 12:39:13;;;;;;;11.93;4.53;;;;;;;;;;5048869;28;20053;-77
2022/12/20 12:41:54;;;;;;;6.00;3.30;;;;;;;;;;5064247;28;20061;-76
2022/12/20 12:44:20;;;;;;;7.55;2.90;;;;;;;;;;5049035;28;20036;-76
2022/12/20 12:46:49;;;;;;;5.60;2.30;;;;;;;;;;5039024;28;20175;-77
2022/12/20 12:49:21;;;;;;;10.73;3.80;;;7.00;99.90;;;;;;5059813;28;20028;-77
2022/12/20 12:51:53;;;;;;;4.85;2.72;;;;;;;;;;5058704;28;20033;-76
2022/12/20 12:54:23;;;;;;;6.57;3.90;;;;;;;;;;5059302;28;20112;-80
2022/12/20 12:56:50;;;;;;;7.28;3.15;;;;;;;;;;5059018;28;20021;-80
2022/12/20 12:59:24;;;;;;;4.78;3.42;;;;;;;;;;5058602;28;20115;-77
2022/12/20 13:02:16;;;;;;;6.43;3.13;;;;;;;;;;5058767;28;20029;-80
2022/12/20 13:05:09;;;;;;;4.60;3.13;;;7.30;99.90;;;;;;5070821;28;20221;-78
2022/12/20 13:07:44;;;;;;;3.67;2.72;;;7.40;99.90;;;;;;5068974;28;20041;-78
2022/12/20 13:10:17;;;;;;;6.75;3.10;;;;;;;;;;5065995;28;20029;-77
2022/12/20 13:13:11;;;;;;;4.28;3.17;;;6.60;99.90;;;;;;5058233;28;20028;-76
2022/12/20 13:15:40;;;;;;;3.80;2.95;;;;;;;;;;5058445;28;20048;-77
2022/12/20 13:18:12;;;;;;;8.50;3.25;;;8.00;99.90;;;;;;5058207;28;20075;-76
2022/12/20 13:20:38;;;;;;;5.28;2.67;;;;;;;;;;5057996;28;20033;-76
2022/12/20 13:23:07;;;;;;;3.00;2.67;;;;;;;;;;5058081;28;20108;-75
2022/12/20 13:25:34;;;;;;;10.38;2.67;;;10.50;99.90;;;;;;5057170;28;20028;-75
2022/12/20 13:28:15;;;;;;;2.60;1.92;;;11.70;99.90;;;;;;5058400;28;20021;-75
2022/12/20 13:30:43;;;;;;;4.60;2.85;;;11.80;93.70;;;;;;5058455;28;20419;-76